2014-01-10 SE-LIS F-50 Amapola Flyg off runway @ Malmoe, Sweden

10
Jan

2014-01-10 SE-LIS F-50 Amapola Flyg off runway @ Malmoe, Sweden

JACDEC SE-LIS @ ESMS

Incident
Date: 2014-01-10
Location: ESMS MMX Malmo Sturup
Country: Sweden
Google Maps: (Insert Link to Google here)
Flight phase: LDG – Flare, Landing Roll, Aborted Landing after Touchdown
Damage to a/c: minor
Flight
Flight no.: APF 9121
From: ESNN/SDL: Sundsvall-Harnosand To: ESMS/MMX: Malmo Sturup
Type: Cargo
Operator
Operator: Amapola Flyg
Leased from: Unknown
Aircraft
Type: Fokker 50
Registration: SE-LIS
Age a/c: 24.8137 years
Constr. No.: 20152
Passengers
 
  Crew Pax Other Total
Occupants 2 0    
Fatalities 0 0 0 0
Injuries 0 0 0 0
Description
On landing in strong crosswind conditions, the aircraft ran off the side of the runway coming to a stop on soft ground. Both pilots remained unhurt. Extent of damage is unknown.

At the time local weather consisted of high winds (building up) and rainshowers.

The airport remained closed for all traffic for the next 7 hours.

WEATHER @ ESMS METAR ESMS 100050Z 28024KT 9999 -RA BKN011 05/03 Q0990 R17/29//95=

WEATHER @ ESMS METAR ESMS 100020Z 28023G33KT 9000 -RA BR BKN010 04/03 Q0989 R17/29//95=

Jacdec Incident ID: 2014-01-10-F50